Front Ariake — C6RX9 — position and weather

sailwx.info

Track history (hours):
 
Tides and Currents Weather Stations Pressure Air Temp Water Temp Dewpoint Dewpoint Depression Visibility Wind Speed Wind Dir Waves Ship Positions

Front Ariake

Last reported at 2018-Feb-16 03:46 UTC. Time now 2018-Feb-23 22:44 UTC.
Position N 01°16' E 104°12'.

Length 333 m; draft 11 m.

Type: Tanker. MMSI: 311226956.

Date/timePositionNaut miles runAvg speedWind from/ knotsBaromVisibWave heightAir tempDewpointWater temp
2018-Feb-16 03:46N 01°16' E 104°12'4 9.2
2018-Feb-16 03:21N 01°15' E 104°08'6 6.0
2018-Feb-16 02:18N 01°14' E 104°02'3 9.2
2018-Feb-16 02:00N 01°14' E 103°59'5 9.5
2018-Feb-16 01:29N 01°13' E 103°55'4 8.8
2018-Feb-16 00:59N 01°11' E 103°51'4 8.5
2018-Feb-16 00:30N 01°09' E 103°47'5 9.2
2018-Feb-16 00:00N 01°06' E 103°44'4 8.6
2018-Feb-15 23:30N 01°04' E 103°40'4 7.4
2018-Feb-15 22:59N 01°05' E 103°36'4 7.5
2018-Feb-15 22:30N 01°07' E 103°33'4 7.5
2018-Feb-15 21:59N 01°09' E 103°30'4 7.8
2018-Feb-15 21:30N 01°11' E 103°27'4 7.8
2018-Feb-15 20:58N 01°12' E 103°23'5 8.2
2018-Feb-15 20:22N 01°16' E 103°19'5 9.0
2018-Feb-15 19:51N 01°19' E 103°16'  
Track history (hours):
 
Tides and Currents Weather Stations Pressure Air Temp Water Temp Dewpoint Dewpoint Depression Visibility Wind Speed Wind Dir Waves Ship Positions

Front Ariake

Last reported at 2018-Feb-16 03:46 UTC. Time now 2018-Feb-23 22:44 UTC.
Position N 01°16' E 104°12'.

Length 333 m; draft 11 m.

Type: Tanker. MMSI: 311226956.

Date/timePositionNaut miles runAvg speedWind from/ knotsBaromVisibWave heightAir tempDewpointWater temp
2018-Feb-16 03:46N 01°16' E 104°12'4 9.2
2018-Feb-16 03:21N 01°15' E 104°08'6 6.0
2018-Feb-16 02:18N 01°14' E 104°02'3 9.2
2018-Feb-16 02:00N 01°14' E 103°59'5 9.5
2018-Feb-16 01:29N 01°13' E 103°55'4 8.8
2018-Feb-16 00:59N 01°11' E 103°51'4 8.5
2018-Feb-16 00:30N 01°09' E 103°47'5 9.2
2018-Feb-16 00:00N 01°06' E 103°44'4 8.6
2018-Feb-15 23:30N 01°04' E 103°40'4 7.4
2018-Feb-15 22:59N 01°05' E 103°36'4 7.5
2018-Feb-15 22:30N 01°07' E 103°33'4 7.5
2018-Feb-15 21:59N 01°09' E 103°30'4 7.8
2018-Feb-15 21:30N 01°11' E 103°27'4 7.8
2018-Feb-15 20:58N 01°12' E 103°23'5 8.2
2018-Feb-15 20:22N 01°16' E 103°19'5 9.0
2018-Feb-15 19:51N 01°19' E 103°16'  

Dump ship's entire track history